sensor_id;sensor_type;location;lat;lon;timestamp;P1;durP1;ratioP1;P2;durP2;ratioP2
37239;SDS011;23130;48.760;9.178;2022-09-09T00:00:45;4.88;;;0.60;;
37239;SDS011;23130;48.760;9.178;2022-09-09T00:03:25;2.90;;;0.70;;
37239;SDS011;23130;48.760;9.178;2022-09-09T00:06:00;2.15;;;0.70;;
37239;SDS011;23130;48.760;9.178;2022-09-09T00:08:48;5.53;;;0.55;;
37239;SDS011;23130;48.760;9.178;2022-09-09T00:14:38;2.72;;;1.38;;
37239;SDS011;23130;48.760;9.178;2022-09-09T00:17:12;1.75;;;0.60;;
37239;SDS011;23130;48.760;9.178;2022-09-09T00:22:25;4.78;;;1.45;;
37239;SDS011;23130;48.760;9.178;2022-09-09T00:24:56;2.55;;;0.98;;
37239;SDS011;23130;48.760;9.178;2022-09-09T00:27:47;3.05;;;0.68;;
37239;SDS011;23130;48.760;9.178;2022-09-09T00:30:17;2.92;;;0.63;;
37239;SDS011;23130;48.760;9.178;2022-09-09T00:32:53;2.42;;;0.63;;
37239;SDS011;23130;48.760;9.178;2022-09-09T00:35:29;1.77;;;0.70;;
37239;SDS011;23130;48.760;9.178;2022-09-09T00:38:02;2.17;;;0.70;;
37239;SDS011;23130;48.760;9.178;2022-09-09T00:40:50;5.20;;;0.73;;
37239;SDS011;23130;48.760;9.178;2022-09-09T00:43:35;1.80;;;0.93;;
37239;SDS011;23130;48.760;9.178;2022-09-09T00:48:34;3.55;;;1.65;;
37239;SDS011;23130;48.760;9.178;2022-09-09T00:54:13;3.03;;;1.13;;
37239;SDS011;23130;48.760;9.178;2022-09-09T00:59:50;2.97;;;1.27;;
37239;SDS011;23130;48.760;9.178;2022-09-09T01:05:13;3.15;;;0.80;;
37239;SDS011;23130;48.760;9.178;2022-09-09T01:08:03;3.17;;;0.85;;
37239;SDS011;23130;48.760;9.178;2022-09-09T01:10:52;2.55;;;0.70;;
37239;SDS011;23130;48.760;9.178;2022-09-09T01:13:24;2.28;;;0.63;;
37239;SDS011;23130;48.760;9.178;2022-09-09T01:15:52;1.55;;;0.73;;
37239;SDS011;23130;48.760;9.178;2022-09-09T01:18:23;1.85;;;0.60;;
37239;SDS011;23130;48.760;9.178;2022-09-09T01:26:19;3.35;;;0.70;;
37239;SDS011;23130;48.760;9.178;2022-09-09T01:28:52;4.10;;;1.05;;
37239;SDS011;23130;48.760;9.178;2022-09-09T01:31:23;3.13;;;0.73;;
37239;SDS011;23130;48.760;9.178;2022-09-09T01:33:53;2.20;;;0.50;;
37239;SDS011;23130;48.760;9.178;2022-09-09T01:38:50;2.97;;;1.15;;
37239;SDS011;23130;48.760;9.178;2022-09-09T01:41:17;2.47;;;0.70;;
37239;SDS011;23130;48.760;9.178;2022-09-09T01:43:42;3.05;;;0.50;;
37239;SDS011;23130;48.760;9.178;2022-09-09T01:46:08;3.42;;;0.60;;
37239;SDS011;23130;48.760;9.178;2022-09-09T01:48:37;2.38;;;0.80;;
37239;SDS011;23130;48.760;9.178;2022-09-09T01:51:03;1.67;;;0.90;;
37239;SDS011;23130;48.760;9.178;2022-09-09T01:53:28;3.17;;;0.63;;
37239;SDS011;23130;48.760;9.178;2022-09-09T01:56:02;2.45;;;0.90;;
37239;SDS011;23130;48.760;9.178;2022-09-09T01:58:51;3.50;;;0.80;;
37239;SDS011;23130;48.760;9.178;2022-09-09T02:06:57;0.98;;;0.40;;
37239;SDS011;23130;48.760;9.178;2022-09-09T02:09:23;1.80;;;0.60;;
37239;SDS011;23130;48.760;9.178;2022-09-09T02:11:52;1.17;;;0.52;;
37239;SDS011;23130;48.760;9.178;2022-09-09T02:14:34;2.55;;;0.60;;
37239;SDS011;23130;48.760;9.178;2022-09-09T02:17:09;3.92;;;0.60;;
37239;SDS011;23130;48.760;9.178;2022-09-09T02:19:37;4.95;;;0.60;;
37239;SDS011;23130;48.760;9.178;2022-09-09T02:22:11;6.10;;;1.02;;
37239;SDS011;23130;48.760;9.178;2022-09-09T02:24:39;1.17;;;0.43;;
37239;SDS011;23130;48.760;9.178;2022-09-09T02:27:06;2.88;;;0.60;;
37239;SDS011;23130;48.760;9.178;2022-09-09T02:29:38;2.22;;;0.55;;
37239;SDS011;23130;48.760;9.178;2022-09-09T02:32:07;2.65;;;0.50;;
37239;SDS011;23130;48.760;9.178;2022-09-09T02:34:36;2.25;;;0.50;;
37239;SDS011;23130;48.760;9.178;2022-09-09T02:39:35;2.25;;;0.47;;
37239;SDS011;23130;48.760;9.178;2022-09-09T02:42:01;3.47;;;0.70;;
37239;SDS011;23130;48.760;9.178;2022-09-09T02:44:29;2.55;;;0.60;;
37239;SDS011;23130;48.760;9.178;2022-09-09T02:47:05;3.22;;;0.50;;
37239;SDS011;23130;48.760;9.178;2022-09-09T02:52:05;1.70;;;0.40;;
37239;SDS011;23130;48.760;9.178;2022-09-09T02:54:43;4.90;;;0.57;;
37239;SDS011;23130;48.760;9.178;2022-09-09T02:59:43;0.75;;;0.30;;
37239;SDS011;23130;48.760;9.178;2022-09-09T03:02:10;2.53;;;0.57;;
37239;SDS011;23130;48.760;9.178;2022-09-09T03:04:36;2.00;;;0.60;;
37239;SDS011;23130;48.760;9.178;2022-09-09T03:07:02;6.25;;;0.55;;
37239;SDS011;23130;48.760;9.178;2022-09-09T03:09:28;2.08;;;0.52;;
37239;SDS011;23130;48.760;9.178;2022-09-09T03:11:55;3.38;;;0.50;;
37239;SDS011;23130;48.760;9.178;2022-09-09T03:14:21;2.50;;;0.60;;
37239;SDS011;23130;48.760;9.178;2022-09-09T03:16:53;2.55;;;0.50;;
37239;SDS011;23130;48.760;9.178;2022-09-09T03:19:19;2.22;;;0.60;;
37239;SDS011;23130;48.760;9.178;2022-09-09T03:21:46;4.10;;;0.57;;
37239;SDS011;23130;48.760;9.178;2022-09-09T03:24:12;2.53;;;0.70;;
37239;SDS011;23130;48.760;9.178;2022-09-09T03:26:39;1.67;;;0.35;;
37239;SDS011;23130;48.760;9.178;2022-09-09T03:29:05;2.55;;;0.45;;
37239;SDS011;23130;48.760;9.178;2022-09-09T03:31:32;2.45;;;0.98;;
37239;SDS011;23130;48.760;9.178;2022-09-09T03:33:58;1.45;;;0.70;;
37239;SDS011;23130;48.760;9.178;2022-09-09T03:36:27;2.97;;;0.40;;
37239;SDS011;23130;48.760;9.178;2022-09-09T03:38:54;1.90;;;0.45;;
37239;SDS011;23130;48.760;9.178;2022-09-09T03:41:23;3.30;;;0.77;;
37239;SDS011;23130;48.760;9.178;2022-09-09T03:43:50;2.83;;;0.60;;
37239;SDS011;23130;48.760;9.178;2022-09-09T03:46:16;0.98;;;0.30;;
37239;SDS011;23130;48.760;9.178;2022-09-09T03:48:42;2.00;;;0.50;;
37239;SDS011;23130;48.760;9.178;2022-09-09T03:51:08;5.80;;;0.60;;
37239;SDS011;23130;48.760;9.178;2022-09-09T03:53:34;2.58;;;0.40;;
37239;SDS011;23130;48.760;9.178;2022-09-09T03:56:00;1.60;;;0.47;;
37239;SDS011;23130;48.760;9.178;2022-09-09T03:58:26;2.72;;;0.40;;
37239;SDS011;23130;48.760;9.178;2022-09-09T04:00:56;1.80;;;0.65;;
37239;SDS011;23130;48.760;9.178;2022-09-09T04:03:23;3.63;;;0.55;;
37239;SDS011;23130;48.760;9.178;2022-09-09T04:05:50;3.65;;;0.75;;
37239;SDS011;23130;48.760;9.178;2022-09-09T04:08:17;3.17;;;0.80;;
37239;SDS011;23130;48.760;9.178;2022-09-09T04:10:44;3.35;;;0.43;;
37239;SDS011;23130;48.760;9.178;2022-09-09T04:13:11;1.98;;;0.50;;
37239;SDS011;23130;48.760;9.178;2022-09-09T04:15:39;1.48;;;0.52;;
37239;SDS011;23130;48.760;9.178;2022-09-09T04:18:04;2.25;;;0.50;;
37239;SDS011;23130;48.760;9.178;2022-09-09T04:20:31;4.10;;;0.70;;
37239;SDS011;23130;48.760;9.178;2022-09-09T04:22:57;3.78;;;0.80;;
37239;SDS011;23130;48.760;9.178;2022-09-09T04:25:23;2.05;;;0.70;;
37239;SDS011;23130;48.760;9.178;2022-09-09T04:27:55;3.75;;;1.15;;
37239;SDS011;23130;48.760;9.178;2022-09-09T04:30:22;1.58;;;0.57;;
37239;SDS011;23130;48.760;9.178;2022-09-09T04:32:49;3.95;;;1.15;;
37239;SDS011;23130;48.760;9.178;2022-09-09T04:35:15;1.98;;;0.55;;
37239;SDS011;23130;48.760;9.178;2022-09-09T04:37:41;2.67;;;0.85;;
37239;SDS011;23130;48.760;9.178;2022-09-09T04:40:07;2.38;;;0.73;;
37239;SDS011;23130;48.760;9.178;2022-09-09T04:42:37;2.97;;;0.70;;
37239;SDS011;23130;48.760;9.178;2022-09-09T04:45:04;3.53;;;1.45;;
37239;SDS011;23130;48.760;9.178;2022-09-09T04:47:31;2.00;;;0.75;;
37239;SDS011;23130;48.760;9.178;2022-09-09T04:50:00;4.78;;;1.08;;
37239;SDS011;23130;48.760;9.178;2022-09-09T04:52:26;3.05;;;0.90;;
37239;SDS011;23130;48.760;9.178;2022-09-09T04:54:51;8.20;;;1.00;;
37239;SDS011;23130;48.760;9.178;2022-09-09T04:57:19;6.75;;;0.93;;
37239;SDS011;23130;48.760;9.178;2022-09-09T04:59:48;2.65;;;0.95;;
37239;SDS011;23130;48.760;9.178;2022-09-09T05:02:13;5.35;;;1.15;;
37239;SDS011;23130;48.760;9.178;2022-09-09T05:04:39;4.10;;;1.23;;
37239;SDS011;23130;48.760;9.178;2022-09-09T05:07:07;5.88;;;0.98;;
37239;SDS011;23130;48.760;9.178;2022-09-09T05:09:34;2.22;;;1.13;;
37239;SDS011;23130;48.760;9.178;2022-09-09T05:11:59;2.75;;;0.77;;
37239;SDS011;23130;48.760;9.178;2022-09-09T05:14:25;2.15;;;0.70;;
37239;SDS011;23130;48.760;9.178;2022-09-09T05:16:52;4.55;;;0.85;;
37239;SDS011;23130;48.760;9.178;2022-09-09T05:19:23;5.13;;;1.10;;
37239;SDS011;23130;48.760;9.178;2022-09-09T05:21:49;1.58;;;0.60;;
37239;SDS011;23130;48.760;9.178;2022-09-09T05:24:15;2.90;;;0.90;;
37239;SDS011;23130;48.760;9.178;2022-09-09T05:26:43;2.38;;;0.90;;
37239;SDS011;23130;48.760;9.178;2022-09-09T05:29:09;1.63;;;0.70;;
37239;SDS011;23130;48.760;9.178;2022-09-09T05:31:35;2.67;;;1.00;;
37239;SDS011;23130;48.760;9.178;2022-09-09T05:34:01;4.93;;;0.63;;
37239;SDS011;23130;48.760;9.178;2022-09-09T05:36:27;2.13;;;0.88;;
37239;SDS011;23130;48.760;9.178;2022-09-09T05:38:52;2.83;;;0.70;;
37239;SDS011;23130;48.760;9.178;2022-09-09T05:41:21;5.88;;;0.80;;
37239;SDS011;23130;48.760;9.178;2022-09-09T05:43:48;5.60;;;0.80;;
37239;SDS011;23130;48.760;9.178;2022-09-09T05:46:17;5.80;;;0.75;;
37239;SDS011;23130;48.760;9.178;2022-09-09T05:48:52;2.05;;;0.68;;
37239;SDS011;23130;48.760;9.178;2022-09-09T05:51:20;1.77;;;0.60;;
37239;SDS011;23130;48.760;9.178;2022-09-09T05:53:51;2.75;;;1.10;;
37239;SDS011;23130;48.760;9.178;2022-09-09T05:56:18;1.98;;;0.85;;
37239;SDS011;23130;48.760;9.178;2022-09-09T05:58:45;3.53;;;1.13;;
37239;SDS011;23130;48.760;9.178;2022-09-09T06:01:15;4.60;;;0.80;;
37239;SDS011;23130;48.760;9.178;2022-09-09T06:03:43;2.85;;;1.05;;
37239;SDS011;23130;48.760;9.178;2022-09-09T06:06:14;1.38;;;0.80;;
37239;SDS011;23130;48.760;9.178;2022-09-09T06:08:43;4.13;;;1.00;;
37239;SDS011;23130;48.760;9.178;2022-09-09T06:11:16;5.60;;;0.93;;
37239;SDS011;23130;48.760;9.178;2022-09-09T06:13:46;1.90;;;1.13;;
37239;SDS011;23130;48.760;9.178;2022-09-09T06:16:17;4.65;;;0.93;;
37239;SDS011;23130;48.760;9.178;2022-09-09T06:18:44;5.05;;;0.98;;
37239;SDS011;23130;48.760;9.178;2022-09-09T06:23:43;2.90;;;0.75;;
37239;SDS011;23130;48.760;9.178;2022-09-09T06:28:39;4.63;;;1.33;;
37239;SDS011;23130;48.760;9.178;2022-09-09T06:31:08;3.78;;;0.70;;
37239;SDS011;23130;48.760;9.178;2022-09-09T06:33:36;4.55;;;1.10;;
37239;SDS011;23130;48.760;9.178;2022-09-09T06:36:06;2.17;;;0.68;;
37239;SDS011;23130;48.760;9.178;2022-09-09T06:38:36;3.58;;;0.98;;
37239;SDS011;23130;48.760;9.178;2022-09-09T06:41:02;4.28;;;1.00;;
37239;SDS011;23130;48.760;9.178;2022-09-09T06:43:28;1.52;;;0.85;;
37239;SDS011;23130;48.760;9.178;2022-09-09T06:48:48;1.90;;;0.75;;
37239;SDS011;23130;48.760;9.178;2022-09-09T06:51:18;2.10;;;1.00;;
37239;SDS011;23130;48.760;9.178;2022-09-09T06:53:46;4.03;;;1.20;;
37239;SDS011;23130;48.760;9.178;2022-09-09T06:58:41;4.43;;;1.60;;
37239;SDS011;23130;48.760;9.178;2022-09-09T07:01:10;5.30;;;1.65;;
37239;SDS011;23130;48.760;9.178;2022-09-09T07:03:38;3.85;;;1.00;;
37239;SDS011;23130;48.760;9.178;2022-09-09T07:06:05;5.32;;;1.10;;
37239;SDS011;23130;48.760;9.178;2022-09-09T07:08:32;6.20;;;1.38;;
37239;SDS011;23130;48.760;9.178;2022-09-09T07:11:02;2.47;;;0.70;;
37239;SDS011;23130;48.760;9.178;2022-09-09T07:13:29;4.07;;;1.33;;
37239;SDS011;23130;48.760;9.178;2022-09-09T07:16:02;3.35;;;0.65;;
37239;SDS011;23130;48.760;9.178;2022-09-09T07:18:33;6.13;;;1.15;;
37239;SDS011;23130;48.760;9.178;2022-09-09T07:20:59;2.55;;;0.73;;
37239;SDS011;23130;48.760;9.178;2022-09-09T07:23:27;3.08;;;0.55;;
37239;SDS011;23130;48.760;9.178;2022-09-09T07:25:53;2.47;;;0.77;;
37239;SDS011;23130;48.760;9.178;2022-09-09T07:28:19;2.45;;;0.65;;
37239;SDS011;23130;48.760;9.178;2022-09-09T07:31:03;2.08;;;0.98;;
37239;SDS011;23130;48.760;9.178;2022-09-09T07:33:29;4.32;;;1.00;;
37239;SDS011;23130;48.760;9.178;2022-09-09T07:36:03;4.10;;;0.90;;
37239;SDS011;23130;48.760;9.178;2022-09-09T07:38:33;5.43;;;0.82;;
37239;SDS011;23130;48.760;9.178;2022-09-09T07:41:06;2.47;;;1.02;;
37239;SDS011;23130;48.760;9.178;2022-09-09T07:43:36;5.03;;;0.88;;
37239;SDS011;23130;48.760;9.178;2022-09-09T07:46:07;2.10;;;0.80;;
37239;SDS011;23130;48.760;9.178;2022-09-09T07:48:33;5.05;;;1.00;;
37239;SDS011;23130;48.760;9.178;2022-09-09T07:51:09;2.83;;;0.75;;
37239;SDS011;23130;48.760;9.178;2022-09-09T07:53:43;3.13;;;0.60;;
37239;SDS011;23130;48.760;9.178;2022-09-09T07:56:10;1.55;;;0.60;;
37239;SDS011;23130;48.760;9.178;2022-09-09T07:58:38;2.55;;;0.68;;
37239;SDS011;23130;48.760;9.178;2022-09-09T08:01:11;3.05;;;0.52;;
37239;SDS011;23130;48.760;9.178;2022-09-09T08:03:45;3.35;;;0.98;;
37239;SDS011;23130;48.760;9.178;2022-09-09T08:06:16;6.50;;;0.70;;
37239;SDS011;23130;48.760;9.178;2022-09-09T08:08:42;2.60;;;0.90;;
37239;SDS011;23130;48.760;9.178;2022-09-09T08:11:10;2.28;;;0.57;;
37239;SDS011;23130;48.760;9.178;2022-09-09T08:13:40;3.42;;;0.80;;
37239;SDS011;23130;48.760;9.178;2022-09-09T08:16:11;4.03;;;0.73;;
37239;SDS011;23130;48.760;9.178;2022-09-09T08:18:38;5.80;;;0.80;;
37239;SDS011;23130;48.760;9.178;2022-09-09T08:21:14;2.53;;;0.80;;
37239;SDS011;23130;48.760;9.178;2022-09-09T08:23:42;2.17;;;0.70;;
37239;SDS011;23130;48.760;9.178;2022-09-09T08:26:14;4.38;;;1.23;;
37239;SDS011;23130;48.760;9.178;2022-09-09T08:28:48;1.20;;;0.93;;
37239;SDS011;23130;48.760;9.178;2022-09-09T08:33:45;5.10;;;0.70;;
37239;SDS011;23130;48.760;9.178;2022-09-09T08:36:13;6.13;;;0.70;;
37239;SDS011;23130;48.760;9.178;2022-09-09T08:38:41;3.97;;;0.60;;
37239;SDS011;23130;48.760;9.178;2022-09-09T08:41:30;4.07;;;0.70;;
37239;SDS011;23130;48.760;9.178;2022-09-09T08:50:21;1.88;;;1.10;;
37239;SDS011;23130;48.760;9.178;2022-09-09T09:07:17;4.88;;;1.10;;
37239;SDS011;23130;48.760;9.178;2022-09-09T09:12:43;3.85;;;1.02;;
37239;SDS011;23130;48.760;9.178;2022-09-09T09:15:33;2.88;;;0.75;;
37239;SDS011;23130;48.760;9.178;2022-09-09T09:18:01;3.75;;;1.00;;
37239;SDS011;23130;48.760;9.178;2022-09-09T09:23:15;6.70;;;1.02;;
37239;SDS011;23130;48.760;9.178;2022-09-09T09:25:47;5.38;;;1.20;;
37239;SDS011;23130;48.760;9.178;2022-09-09T09:28:25;4.45;;;0.60;;
37239;SDS011;23130;48.760;9.178;2022-09-09T09:31:01;4.88;;;1.05;;
37239;SDS011;23130;48.760;9.178;2022-09-09T09:33:40;3.75;;;0.70;;
37239;SDS011;23130;48.760;9.178;2022-09-09T09:36:15;4.55;;;0.47;;
37239;SDS011;23130;48.760;9.178;2022-09-09T09:38:55;3.55;;;0.50;;
37239;SDS011;23130;48.760;9.178;2022-09-09T09:41:31;6.50;;;0.98;;
37239;SDS011;23130;48.760;9.178;2022-09-09T09:44:05;2.67;;;0.73;;
37239;SDS011;23130;48.760;9.178;2022-09-09T09:46:44;2.90;;;0.45;;
37239;SDS011;23130;48.760;9.178;2022-09-09T09:49:09;2.03;;;0.70;;
37239;SDS011;23130;48.760;9.178;2022-09-09T09:51:35;1.98;;;0.60;;
37239;SDS011;23130;48.760;9.178;2022-09-09T09:54:25;2.20;;;1.15;;
37239;SDS011;23130;48.760;9.178;2022-09-09T09:56:54;2.50;;;0.77;;
37239;SDS011;23130;48.760;9.178;2022-09-09T09:59:21;1.38;;;0.47;;
37239;SDS011;23130;48.760;9.178;2022-09-09T10:01:53;0.98;;;0.38;;
37239;SDS011;23130;48.760;9.178;2022-09-09T10:04:22;2.25;;;0.50;;
37239;SDS011;23130;48.760;9.178;2022-09-09T10:06:49;2.75;;;0.60;;
37239;SDS011;23130;48.760;9.178;2022-09-09T10:12:11;4.55;;;1.40;;
37239;SDS011;23130;48.760;9.178;2022-09-09T10:20:42;3.97;;;0.88;;
37239;SDS011;23130;48.760;9.178;2022-09-09T10:26:07;2.60;;;0.70;;
37239;SDS011;23130;48.760;9.178;2022-09-09T10:29:14;3.80;;;0.52;;
37239;SDS011;23130;48.760;9.178;2022-09-09T10:31:59;4.50;;;0.90;;
37239;SDS011;23130;48.760;9.178;2022-09-09T10:34:39;6.88;;;1.17;;
37239;SDS011;23130;48.760;9.178;2022-09-09T10:37:22;3.53;;;0.60;;
37239;SDS011;23130;48.760;9.178;2022-09-09T10:40:12;2.97;;;0.60;;
37239;SDS011;23130;48.760;9.178;2022-09-09T10:42:56;4.88;;;0.80;;
37239;SDS011;23130;48.760;9.178;2022-09-09T10:45:48;4.57;;;0.90;;
37239;SDS011;23130;48.760;9.178;2022-09-09T10:48:35;1.83;;;0.50;;
37239;SDS011;23130;48.760;9.178;2022-09-09T10:51:17;1.60;;;0.70;;
37239;SDS011;23130;48.760;9.178;2022-09-09T10:56:57;3.30;;;0.60;;
37239;SDS011;23130;48.760;9.178;2022-09-09T10:59:29;3.10;;;0.65;;
37239;SDS011;23130;48.760;9.178;2022-09-09T11:02:12;2.95;;;1.33;;
37239;SDS011;23130;48.760;9.178;2022-09-09T11:04:45;2.72;;;0.90;;
37239;SDS011;23130;48.760;9.178;2022-09-09T11:10:03;3.28;;;0.40;;
37239;SDS011;23130;48.760;9.178;2022-09-09T11:12:41;4.70;;;0.90;;
37239;SDS011;23130;48.760;9.178;2022-09-09T11:15:23;5.53;;;0.75;;
37239;SDS011;23130;48.760;9.178;2022-09-09T11:18:01;4.38;;;0.95;;
37239;SDS011;23130;48.760;9.178;2022-09-09T11:20:29;3.60;;;0.82;;
37239;SDS011;23130;48.760;9.178;2022-09-09T11:25:35;2.00;;;0.40;;
37239;SDS011;23130;48.760;9.178;2022-09-09T11:36:32;2.53;;;0.47;;
37239;SDS011;23130;48.760;9.178;2022-09-09T11:42:15;3.22;;;0.40;;
37239;SDS011;23130;48.760;9.178;2022-09-09T11:44:47;1.33;;;0.40;;
37239;SDS011;23130;48.760;9.178;2022-09-09T11:47:17;1.92;;;0.40;;
37239;SDS011;23130;48.760;9.178;2022-09-09T11:50:06;1.15;;;0.50;;
37239;SDS011;23130;48.760;9.178;2022-09-09T11:52:43;2.05;;;0.22;;
37239;SDS011;23130;48.760;9.178;2022-09-09T11:55:12;0.57;;;0.20;;
37239;SDS011;23130;48.760;9.178;2022-09-09T11:57:56;1.85;;;0.20;;
37239;SDS011;23130;48.760;9.178;2022-09-09T12:00:30;1.20;;;0.30;;
37239;SDS011;23130;48.760;9.178;2022-09-09T12:02:58;0.63;;;0.10;;
37239;SDS011;23130;48.760;9.178;2022-09-09T12:05:24;1.20;;;0.20;;
37239;SDS011;23130;48.760;9.178;2022-09-09T12:08:05;2.38;;;0.10;;
37239;SDS011;23130;48.760;9.178;2022-09-09T12:10:35;1.08;;;0.10;;
37239;SDS011;23130;48.760;9.178;2022-09-09T12:16:26;0.95;;;0.20;;
37239;SDS011;23130;48.760;9.178;2022-09-09T12:18:52;0.20;;;0.10;;
37239;SDS011;23130;48.760;9.178;2022-09-09T12:24:22;1.42;;;0.30;;
37239;SDS011;23130;48.760;9.178;2022-09-09T12:27:07;1.15;;;0.10;;
37239;SDS011;23130;48.760;9.178;2022-09-09T12:34:59;1.65;;;0.22;;
37239;SDS011;23130;48.760;9.178;2022-09-09T12:39:53;1.13;;;0.30;;
37239;SDS011;23130;48.760;9.178;2022-09-09T12:42:21;3.47;;;0.38;;
37239;SDS011;23130;48.760;9.178;2022-09-09T12:44:58;2.88;;;0.32;;
37239;SDS011;23130;48.760;9.178;2022-09-09T12:47:48;3.47;;;0.30;;
37239;SDS011;23130;48.760;9.178;2022-09-09T12:50:22;0.80;;;0.30;;
37239;SDS011;23130;48.760;9.178;2022-09-09T12:52:57;1.80;;;0.65;;
37239;SDS011;23130;48.760;9.178;2022-09-09T12:55:30;1.85;;;0.40;;
37239;SDS011;23130;48.760;9.178;2022-09-09T12:57:58;2.75;;;0.40;;
37239;SDS011;23130;48.760;9.178;2022-09-09T13:00:26;1.15;;;0.30;;
37239;SDS011;23130;48.760;9.178;2022-09-09T13:02:56;5.05;;;0.47;;
37239;SDS011;23130;48.760;9.178;2022-09-09T13:05:25;0.80;;;0.30;;
37239;SDS011;23130;48.760;9.178;2022-09-09T13:08:00;1.58;;;0.28;;
37239;SDS011;23130;48.760;9.178;2022-09-09T13:10:31;2.00;;;0.43;;
37239;SDS011;23130;48.760;9.178;2022-09-09T13:13:04;1.27;;;0.20;;
37239;SDS011;23130;48.760;9.178;2022-09-09T13:15:38;1.67;;;0.30;;
37239;SDS011;23130;48.760;9.178;2022-09-09T13:18:05;2.42;;;0.30;;
37239;SDS011;23130;48.760;9.178;2022-09-09T13:20:38;0.57;;;0.20;;
37239;SDS011;23130;48.760;9.178;2022-09-09T13:23:04;1.95;;;0.28;;
37239;SDS011;23130;48.760;9.178;2022-09-09T13:25:30;2.58;;;0.73;;
37239;SDS011;23130;48.760;9.178;2022-09-09T13:27:57;1.13;;;0.32;;
37239;SDS011;23130;48.760;9.178;2022-09-09T13:30:28;2.45;;;0.43;;
37239;SDS011;23130;48.760;9.178;2022-09-09T13:33:00;4.35;;;0.60;;
37239;SDS011;23130;48.760;9.178;2022-09-09T13:35:46;1.23;;;0.20;;
37239;SDS011;23130;48.760;9.178;2022-09-09T13:38:14;2.90;;;0.20;;
37239;SDS011;23130;48.760;9.178;2022-09-09T13:40:51;5.35;;;0.73;;
37239;SDS011;23130;48.760;9.178;2022-09-09T13:43:21;1.10;;;0.20;;
37239;SDS011;23130;48.760;9.178;2022-09-09T13:46:01;2.50;;;0.30;;
37239;SDS011;23130;48.760;9.178;2022-09-09T13:48:28;1.25;;;0.30;;
37239;SDS011;23130;48.760;9.178;2022-09-09T13:50:57;2.03;;;0.30;;
37239;SDS011;23130;48.760;9.178;2022-09-09T13:53:27;1.20;;;0.20;;
37239;SDS011;23130;48.760;9.178;2022-09-09T13:55:53;1.92;;;0.40;;
37239;SDS011;23130;48.760;9.178;2022-09-09T13:58:19;2.60;;;0.50;;
37239;SDS011;23130;48.760;9.178;2022-09-09T14:00:45;3.75;;;0.45;;
37239;SDS011;23130;48.760;9.178;2022-09-09T14:03:11;4.63;;;0.77;;
37239;SDS011;23130;48.760;9.178;2022-09-09T14:05:38;1.80;;;0.30;;
37239;SDS011;23130;48.760;9.178;2022-09-09T14:08:04;1.45;;;0.30;;
37239;SDS011;23130;48.760;9.178;2022-09-09T14:10:31;2.35;;;0.38;;
37239;SDS011;23130;48.760;9.178;2022-09-09T14:12:57;0.75;;;0.20;;
37239;SDS011;23130;48.760;9.178;2022-09-09T14:15:22;1.45;;;0.32;;
37239;SDS011;23130;48.760;9.178;2022-09-09T14:17:48;1.92;;;0.60;;
37239;SDS011;23130;48.760;9.178;2022-09-09T14:20:14;2.10;;;0.55;;
37239;SDS011;23130;48.760;9.178;2022-09-09T14:22:42;1.00;;;0.20;;
37239;SDS011;23130;48.760;9.178;2022-09-09T14:25:09;2.90;;;0.68;;
37239;SDS011;23130;48.760;9.178;2022-09-09T14:27:34;2.85;;;0.40;;
37239;SDS011;23130;48.760;9.178;2022-09-09T14:30:00;1.98;;;0.43;;
37239;SDS011;23130;48.760;9.178;2022-09-09T14:32:26;1.60;;;0.57;;
37239;SDS011;23130;48.760;9.178;2022-09-09T14:34:52;1.17;;;0.70;;
37239;SDS011;23130;48.760;9.178;2022-09-09T14:37:17;0.88;;;0.25;;
37239;SDS011;23130;48.760;9.178;2022-09-09T14:39:44;1.13;;;0.20;;
37239;SDS011;23130;48.760;9.178;2022-09-09T14:42:13;0.95;;;0.20;;
37239;SDS011;23130;48.760;9.178;2022-09-09T14:44:39;2.08;;;0.52;;
37239;SDS011;23130;48.760;9.178;2022-09-09T14:47:05;0.80;;;0.30;;
37239;SDS011;23130;48.760;9.178;2022-09-09T14:49:33;0.85;;;0.10;;
37239;SDS011;23130;48.760;9.178;2022-09-09T14:51:59;2.03;;;0.52;;
37239;SDS011;23130;48.760;9.178;2022-09-09T14:54:24;2.00;;;0.30;;
37239;SDS011;23130;48.760;9.178;2022-09-09T14:56:50;0.88;;;0.20;;
37239;SDS011;23130;48.760;9.178;2022-09-09T14:59:15;0.90;;;0.25;;
37239;SDS011;23130;48.760;9.178;2022-09-09T15:01:41;2.78;;;0.35;;
37239;SDS011;23130;48.760;9.178;2022-09-09T15:04:06;0.77;;;0.20;;
37239;SDS011;23130;48.760;9.178;2022-09-09T15:06:34;4.07;;;0.40;;
37239;SDS011;23130;48.760;9.178;2022-09-09T15:09:03;1.52;;;0.30;;
37239;SDS011;23130;48.760;9.178;2022-09-09T15:11:29;1.33;;;0.30;;
37239;SDS011;23130;48.760;9.178;2022-09-09T15:14:02;1.63;;;0.30;;
37239;SDS011;23130;48.760;9.178;2022-09-09T15:16:29;1.73;;;0.40;;
37239;SDS011;23130;48.760;9.178;2022-09-09T15:18:56;2.17;;;0.38;;
37239;SDS011;23130;48.760;9.178;2022-09-09T15:21:24;3.00;;;0.52;;
37239;SDS011;23130;48.760;9.178;2022-09-09T15:23:54;3.72;;;0.65;;
37239;SDS011;23130;48.760;9.178;2022-09-09T15:26:21;3.67;;;0.25;;
37239;SDS011;23130;48.760;9.178;2022-09-09T15:28:48;1.83;;;0.22;;
37239;SDS011;23130;48.760;9.178;2022-09-09T15:31:18;1.92;;;0.40;;
37239;SDS011;23130;48.760;9.178;2022-09-09T15:33:46;3.53;;;0.30;;
37239;SDS011;23130;48.760;9.178;2022-09-09T15:36:23;1.38;;;0.28;;
37239;SDS011;23130;48.760;9.178;2022-09-09T15:38:50;2.47;;;0.55;;
37239;SDS011;23130;48.760;9.178;2022-09-09T15:41:17;1.17;;;0.38;;
37239;SDS011;23130;48.760;9.178;2022-09-09T15:43:44;2.10;;;0.30;;
37239;SDS011;23130;48.760;9.178;2022-09-09T15:48:42;1.95;;;0.50;;
37239;SDS011;23130;48.760;9.178;2022-09-09T15:51:09;1.73;;;0.80;;
37239;SDS011;23130;48.760;9.178;2022-09-09T15:53:35;2.80;;;0.50;;
37239;SDS011;23130;48.760;9.178;2022-09-09T15:56:06;1.05;;;0.30;;
37239;SDS011;23130;48.760;9.178;2022-09-09T15:58:32;1.48;;;0.30;;
37239;SDS011;23130;48.760;9.178;2022-09-09T16:01:02;1.65;;;0.35;;
37239;SDS011;23130;48.760;9.178;2022-09-09T16:03:29;2.83;;;0.20;;
37239;SDS011;23130;48.760;9.178;2022-09-09T16:05:58;1.42;;;0.30;;
37239;SDS011;23130;48.760;9.178;2022-09-09T16:08:24;2.25;;;0.40;;
37239;SDS011;23130;48.760;9.178;2022-09-09T16:10:56;2.60;;;0.30;;
37239;SDS011;23130;48.760;9.178;2022-09-09T16:13:28;1.73;;;0.40;;
37239;SDS011;23130;48.760;9.178;2022-09-09T16:15:54;9.15;;;0.50;;
37239;SDS011;23130;48.760;9.178;2022-09-09T16:18:20;0.75;;;0.22;;
37239;SDS011;23130;48.760;9.178;2022-09-09T16:20:53;2.25;;;0.45;;
37239;SDS011;23130;48.760;9.178;2022-09-09T16:23:19;5.57;;;0.77;;
37239;SDS011;23130;48.760;9.178;2022-09-09T16:25:52;2.13;;;0.40;;
37239;SDS011;23130;48.760;9.178;2022-09-09T16:28:21;5.45;;;0.82;;
37239;SDS011;23130;48.760;9.178;2022-09-09T16:30:47;2.17;;;0.30;;
37239;SDS011;23130;48.760;9.178;2022-09-09T16:33:13;2.38;;;0.35;;
37239;SDS011;23130;48.760;9.178;2022-09-09T16:35:41;1.83;;;0.50;;
37239;SDS011;23130;48.760;9.178;2022-09-09T16:38:08;4.60;;;0.30;;
37239;SDS011;23130;48.760;9.178;2022-09-09T16:40:34;2.90;;;0.40;;
37239;SDS011;23130;48.760;9.178;2022-09-09T16:43:00;1.95;;;0.30;;
37239;SDS011;23130;48.760;9.178;2022-09-09T16:45:26;1.85;;;0.20;;
37239;SDS011;23130;48.760;9.178;2022-09-09T16:47:52;2.13;;;0.40;;
37239;SDS011;23130;48.760;9.178;2022-09-09T16:50:18;1.95;;;0.52;;
37239;SDS011;23130;48.760;9.178;2022-09-09T16:52:43;0.73;;;0.10;;
37239;SDS011;23130;48.760;9.178;2022-09-09T16:55:09;0.73;;;0.30;;
37239;SDS011;23130;48.760;9.178;2022-09-09T16:57:34;0.40;;;0.10;;
37239;SDS011;23130;48.760;9.178;2022-09-09T17:00:00;0.55;;;0.10;;
37239;SDS011;23130;48.760;9.178;2022-09-09T17:02:29;1.38;;;0.20;;
37239;SDS011;23130;48.760;9.178;2022-09-09T17:04:55;1.25;;;0.50;;
37239;SDS011;23130;48.760;9.178;2022-09-09T17:07:20;2.20;;;0.43;;
37239;SDS011;23130;48.760;9.178;2022-09-09T17:09:47;1.23;;;0.20;;
37239;SDS011;23130;48.760;9.178;2022-09-09T17:12:13;0.77;;;0.13;;